sensor_id;sensor_type;location;lat;lon;timestamp;P1;durP1;ratioP1;P2;durP2;ratioP2
3922;SDS011;1976;51.694;6.256;2023-07-22T00:00:47;18.73;;;10.60;;
3922;SDS011;1976;51.694;6.256;2023-07-22T00:03:13;14.40;;;8.43;;
3922;SDS011;1976;51.694;6.256;2023-07-22T00:05:39;19.60;;;8.83;;
3922;SDS011;1976;51.694;6.256;2023-07-22T00:08:05;18.30;;;10.30;;
3922;SDS011;1976;51.694;6.256;2023-07-22T00:10:31;15.30;;;9.93;;
3922;SDS011;1976;51.694;6.256;2023-07-22T00:12:56;18.93;;;8.50;;
3922;SDS011;1976;51.694;6.256;2023-07-22T00:15:22;22.70;;;9.90;;
3922;SDS011;1976;51.694;6.256;2023-07-22T00:17:49;17.50;;;10.20;;
3922;SDS011;1976;51.694;6.256;2023-07-22T00:20:15;27.10;;;9.40;;
3922;SDS011;1976;51.694;6.256;2023-07-22T00:22:41;17.40;;;10.23;;
3922;SDS011;1976;51.694;6.256;2023-07-22T00:25:09;20.77;;;10.70;;
3922;SDS011;1976;51.694;6.256;2023-07-22T00:27:38;14.70;;;9.77;;
3922;SDS011;1976;51.694;6.256;2023-07-22T00:30:06;15.10;;;9.43;;
3922;SDS011;1976;51.694;6.256;2023-07-22T00:32:32;24.17;;;11.57;;
3922;SDS011;1976;51.694;6.256;2023-07-22T00:34:58;14.87;;;9.80;;
3922;SDS011;1976;51.694;6.256;2023-07-22T00:37:24;15.43;;;10.20;;
3922;SDS011;1976;51.694;6.256;2023-07-22T00:39:50;13.83;;;9.80;;
3922;SDS011;1976;51.694;6.256;2023-07-22T00:42:16;12.10;;;8.93;;
3922;SDS011;1976;51.694;6.256;2023-07-22T00:44:42;29.50;;;10.40;;
3922;SDS011;1976;51.694;6.256;2023-07-22T00:47:08;17.47;;;9.20;;
3922;SDS011;1976;51.694;6.256;2023-07-22T00:49:34;18.13;;;9.50;;
3922;SDS011;1976;51.694;6.256;2023-07-22T00:52:01;16.80;;;9.97;;
3922;SDS011;1976;51.694;6.256;2023-07-22T00:54:28;18.53;;;11.10;;
3922;SDS011;1976;51.694;6.256;2023-07-22T00:56:56;16.57;;;9.43;;
3922;SDS011;1976;51.694;6.256;2023-07-22T00:59:22;17.90;;;9.70;;
3922;SDS011;1976;51.694;6.256;2023-07-22T01:01:49;13.73;;;8.47;;
3922;SDS011;1976;51.694;6.256;2023-07-22T01:04:15;16.20;;;9.50;;
3922;SDS011;1976;51.694;6.256;2023-07-22T01:06:44;13.13;;;8.97;;
3922;SDS011;1976;51.694;6.256;2023-07-22T01:09:10;21.43;;;11.10;;
3922;SDS011;1976;51.694;6.256;2023-07-22T01:11:36;19.20;;;9.60;;
3922;SDS011;1976;51.694;6.256;2023-07-22T01:14:01;13.17;;;9.13;;
3922;SDS011;1976;51.694;6.256;2023-07-22T01:16:28;16.40;;;10.23;;
3922;SDS011;1976;51.694;6.256;2023-07-22T01:18:55;15.73;;;9.57;;
3922;SDS011;1976;51.694;6.256;2023-07-22T01:21:25;15.97;;;9.93;;
3922;SDS011;1976;51.694;6.256;2023-07-22T01:23:51;20.40;;;9.33;;
3922;SDS011;1976;51.694;6.256;2023-07-22T01:26:17;13.20;;;9.00;;
3922;SDS011;1976;51.694;6.256;2023-07-22T01:28:44;14.07;;;8.63;;
3922;SDS011;1976;51.694;6.256;2023-07-22T01:31:09;13.10;;;9.03;;
3922;SDS011;1976;51.694;6.256;2023-07-22T01:33:35;20.10;;;9.17;;
3922;SDS011;1976;51.694;6.256;2023-07-22T01:36:02;21.80;;;10.87;;
3922;SDS011;1976;51.694;6.256;2023-07-22T01:38:28;19.80;;;10.80;;
3922;SDS011;1976;51.694;6.256;2023-07-22T01:40:54;20.17;;;9.73;;
3922;SDS011;1976;51.694;6.256;2023-07-22T01:43:20;23.10;;;10.63;;
3922;SDS011;1976;51.694;6.256;2023-07-22T01:45:46;15.47;;;9.20;;
3922;SDS011;1976;51.694;6.256;2023-07-22T01:48:12;30.50;;;9.47;;
3922;SDS011;1976;51.694;6.256;2023-07-22T01:50:37;16.40;;;10.03;;
3922;SDS011;1976;51.694;6.256;2023-07-22T01:53:03;19.77;;;9.70;;
3922;SDS011;1976;51.694;6.256;2023-07-22T01:55:30;14.30;;;8.63;;
3922;SDS011;1976;51.694;6.256;2023-07-22T01:57:57;16.60;;;9.50;;
3922;SDS011;1976;51.694;6.256;2023-07-22T02:00:23;18.40;;;9.80;;
3922;SDS011;1976;51.694;6.256;2023-07-22T02:02:49;14.90;;;9.73;;
3922;SDS011;1976;51.694;6.256;2023-07-22T02:05:14;17.73;;;10.63;;
3922;SDS011;1976;51.694;6.256;2023-07-22T02:07:40;21.07;;;10.90;;
3922;SDS011;1976;51.694;6.256;2023-07-22T02:10:06;17.63;;;10.33;;
3922;SDS011;1976;51.694;6.256;2023-07-22T02:12:32;21.53;;;11.27;;
3922;SDS011;1976;51.694;6.256;2023-07-22T02:14:57;19.00;;;11.33;;
3922;SDS011;1976;51.694;6.256;2023-07-22T02:17:23;17.20;;;10.20;;
3922;SDS011;1976;51.694;6.256;2023-07-22T02:19:49;23.97;;;11.23;;
3922;SDS011;1976;51.694;6.256;2023-07-22T02:22:15;18.83;;;11.43;;
3922;SDS011;1976;51.694;6.256;2023-07-22T02:24:40;17.67;;;11.20;;
3922;SDS011;1976;51.694;6.256;2023-07-22T02:27:06;18.93;;;11.03;;
3922;SDS011;1976;51.694;6.256;2023-07-22T02:29:33;22.93;;;10.17;;
3922;SDS011;1976;51.694;6.256;2023-07-22T02:31:59;19.27;;;11.07;;
3922;SDS011;1976;51.694;6.256;2023-07-22T02:34:24;17.43;;;11.07;;
3922;SDS011;1976;51.694;6.256;2023-07-22T02:36:50;16.87;;;10.97;;
3922;SDS011;1976;51.694;6.256;2023-07-22T02:39:16;14.17;;;10.50;;
3922;SDS011;1976;51.694;6.256;2023-07-22T02:41:41;18.50;;;11.80;;
3922;SDS011;1976;51.694;6.256;2023-07-22T02:44:07;17.73;;;10.10;;
3922;SDS011;1976;51.694;6.256;2023-07-22T02:46:33;19.97;;;10.30;;
3922;SDS011;1976;51.694;6.256;2023-07-22T02:48:59;22.37;;;12.17;;
3922;SDS011;1976;51.694;6.256;2023-07-22T02:51:24;18.10;;;10.33;;
3922;SDS011;1976;51.694;6.256;2023-07-22T02:53:50;16.90;;;10.40;;
3922;SDS011;1976;51.694;6.256;2023-07-22T02:56:16;20.07;;;11.43;;
3922;SDS011;1976;51.694;6.256;2023-07-22T02:58:41;17.00;;;11.50;;
3922;SDS011;1976;51.694;6.256;2023-07-22T03:01:07;19.67;;;11.53;;
3922;SDS011;1976;51.694;6.256;2023-07-22T03:03:35;16.13;;;10.17;;
3922;SDS011;1976;51.694;6.256;2023-07-22T03:06:01;20.80;;;12.00;;
3922;SDS011;1976;51.694;6.256;2023-07-22T03:08:28;23.40;;;11.30;;
3922;SDS011;1976;51.694;6.256;2023-07-22T03:10:54;17.57;;;9.47;;
3922;SDS011;1976;51.694;6.256;2023-07-22T03:13:19;18.87;;;10.53;;
3922;SDS011;1976;51.694;6.256;2023-07-22T03:15:45;19.87;;;11.03;;
3922;SDS011;1976;51.694;6.256;2023-07-22T03:18:11;19.77;;;11.20;;
3922;SDS011;1976;51.694;6.256;2023-07-22T03:20:37;23.33;;;11.40;;
3922;SDS011;1976;51.694;6.256;2023-07-22T03:23:03;17.50;;;11.03;;
3922;SDS011;1976;51.694;6.256;2023-07-22T03:25:30;16.60;;;10.03;;
3922;SDS011;1976;51.694;6.256;2023-07-22T03:27:56;24.80;;;12.17;;
3922;SDS011;1976;51.694;6.256;2023-07-22T03:30:22;17.07;;;10.37;;
3922;SDS011;1976;51.694;6.256;2023-07-22T03:32:48;23.97;;;12.63;;
3922;SDS011;1976;51.694;6.256;2023-07-22T03:35:15;22.17;;;12.13;;
3922;SDS011;1976;51.694;6.256;2023-07-22T03:37:42;19.77;;;11.70;;
3922;SDS011;1976;51.694;6.256;2023-07-22T03:40:08;22.03;;;11.30;;
3922;SDS011;1976;51.694;6.256;2023-07-22T03:42:52;18.67;;;11.53;;
3922;SDS011;1976;51.694;6.256;2023-07-22T03:45:19;20.77;;;12.00;;
3922;SDS011;1976;51.694;6.256;2023-07-22T03:47:46;18.30;;;11.30;;
3922;SDS011;1976;51.694;6.256;2023-07-22T03:50:15;29.10;;;12.57;;
3922;SDS011;1976;51.694;6.256;2023-07-22T03:52:41;22.30;;;11.43;;
3922;SDS011;1976;51.694;6.256;2023-07-22T03:55:07;25.30;;;12.07;;
3922;SDS011;1976;51.694;6.256;2023-07-22T03:57:33;32.27;;;10.90;;
3922;SDS011;1976;51.694;6.256;2023-07-22T03:59:59;21.47;;;11.43;;
3922;SDS011;1976;51.694;6.256;2023-07-22T04:02:25;17.60;;;11.20;;
3922;SDS011;1976;51.694;6.256;2023-07-22T04:04:54;20.97;;;12.60;;
3922;SDS011;1976;51.694;6.256;2023-07-22T04:07:20;16.37;;;11.23;;
3922;SDS011;1976;51.694;6.256;2023-07-22T04:09:46;20.90;;;11.63;;
3922;SDS011;1976;51.694;6.256;2023-07-22T04:12:12;19.67;;;11.73;;
3922;SDS011;1976;51.694;6.256;2023-07-22T04:14:38;16.33;;;10.67;;
3922;SDS011;1976;51.694;6.256;2023-07-22T04:17:04;22.47;;;10.03;;
3922;SDS011;1976;51.694;6.256;2023-07-22T04:19:30;19.93;;;12.17;;
3922;SDS011;1976;51.694;6.256;2023-07-22T04:21:56;23.90;;;10.90;;
3922;SDS011;1976;51.694;6.256;2023-07-22T04:24:21;17.57;;;10.50;;
3922;SDS011;1976;51.694;6.256;2023-07-22T04:26:48;21.20;;;10.73;;
3922;SDS011;1976;51.694;6.256;2023-07-22T04:29:13;17.23;;;10.53;;
3922;SDS011;1976;51.694;6.256;2023-07-22T04:31:39;23.40;;;10.73;;
3922;SDS011;1976;51.694;6.256;2023-07-22T04:34:05;17.83;;;11.07;;
3922;SDS011;1976;51.694;6.256;2023-07-22T04:36:31;18.17;;;11.30;;
3922;SDS011;1976;51.694;6.256;2023-07-22T04:38:57;32.90;;;11.93;;
3922;SDS011;1976;51.694;6.256;2023-07-22T04:41:23;26.50;;;11.00;;
3922;SDS011;1976;51.694;6.256;2023-07-22T04:43:49;15.50;;;9.83;;
3922;SDS011;1976;51.694;6.256;2023-07-22T04:46:16;17.83;;;10.80;;
3922;SDS011;1976;51.694;6.256;2023-07-22T04:48:42;18.90;;;11.90;;
3922;SDS011;1976;51.694;6.256;2023-07-22T04:51:08;21.10;;;11.40;;
3922;SDS011;1976;51.694;6.256;2023-07-22T04:53:34;16.43;;;9.73;;
3922;SDS011;1976;51.694;6.256;2023-07-22T04:56:00;32.97;;;11.27;;
3922;SDS011;1976;51.694;6.256;2023-07-22T04:58:26;30.67;;;10.80;;
3922;SDS011;1976;51.694;6.256;2023-07-22T05:00:52;29.83;;;10.57;;
3922;SDS011;1976;51.694;6.256;2023-07-22T05:03:18;30.30;;;12.40;;
3922;SDS011;1976;51.694;6.256;2023-07-22T05:05:44;20.37;;;10.63;;
3922;SDS011;1976;51.694;6.256;2023-07-22T05:08:09;22.30;;;10.70;;
3922;SDS011;1976;51.694;6.256;2023-07-22T05:10:36;28.93;;;11.97;;
3922;SDS011;1976;51.694;6.256;2023-07-22T05:13:03;23.23;;;11.57;;
3922;SDS011;1976;51.694;6.256;2023-07-22T05:15:28;23.10;;;11.83;;
3922;SDS011;1976;51.694;6.256;2023-07-22T05:17:54;19.00;;;10.73;;
3922;SDS011;1976;51.694;6.256;2023-07-22T05:20:19;16.43;;;10.93;;
3922;SDS011;1976;51.694;6.256;2023-07-22T05:22:45;22.80;;;10.53;;
3922;SDS011;1976;51.694;6.256;2023-07-22T05:25:11;15.67;;;9.50;;
3922;SDS011;1976;51.694;6.256;2023-07-22T05:27:36;19.23;;;11.33;;
3922;SDS011;1976;51.694;6.256;2023-07-22T05:30:02;27.40;;;10.63;;
3922;SDS011;1976;51.694;6.256;2023-07-22T05:32:28;12.87;;;9.00;;
3922;SDS011;1976;51.694;6.256;2023-07-22T05:34:57;19.77;;;10.67;;
3922;SDS011;1976;51.694;6.256;2023-07-22T05:37:23;17.30;;;9.17;;
3922;SDS011;1976;51.694;6.256;2023-07-22T05:39:49;18.57;;;9.40;;
3922;SDS011;1976;51.694;6.256;2023-07-22T05:42:16;34.87;;;10.43;;
3922;SDS011;1976;51.694;6.256;2023-07-22T05:44:42;17.70;;;10.23;;
3922;SDS011;1976;51.694;6.256;2023-07-22T05:47:07;28.37;;;11.40;;
3922;SDS011;1976;51.694;6.256;2023-07-22T05:49:33;15.97;;;10.63;;
3922;SDS011;1976;51.694;6.256;2023-07-22T05:51:58;21.40;;;10.23;;
3922;SDS011;1976;51.694;6.256;2023-07-22T05:54:24;29.63;;;12.43;;
3922;SDS011;1976;51.694;6.256;2023-07-22T05:56:50;21.90;;;11.40;;
3922;SDS011;1976;51.694;6.256;2023-07-22T05:59:17;23.93;;;10.30;;
3922;SDS011;1976;51.694;6.256;2023-07-22T06:01:42;17.20;;;10.17;;
3922;SDS011;1976;51.694;6.256;2023-07-22T06:04:08;21.50;;;12.40;;
3922;SDS011;1976;51.694;6.256;2023-07-22T06:06:35;14.57;;;9.70;;
3922;SDS011;1976;51.694;6.256;2023-07-22T06:09:00;20.10;;;11.10;;
3922;SDS011;1976;51.694;6.256;2023-07-22T06:11:26;18.20;;;10.10;;
3922;SDS011;1976;51.694;6.256;2023-07-22T06:13:53;19.90;;;11.87;;
3922;SDS011;1976;51.694;6.256;2023-07-22T06:16:19;24.43;;;11.60;;
3922;SDS011;1976;51.694;6.256;2023-07-22T06:18:45;22.53;;;11.27;;
3922;SDS011;1976;51.694;6.256;2023-07-22T06:21:11;21.87;;;11.03;;
3922;SDS011;1976;51.694;6.256;2023-07-22T06:23:37;21.63;;;10.47;;
3922;SDS011;1976;51.694;6.256;2023-07-22T06:26:02;20.60;;;11.13;;
3922;SDS011;1976;51.694;6.256;2023-07-22T06:28:28;22.20;;;11.13;;
3922;SDS011;1976;51.694;6.256;2023-07-22T06:30:53;19.83;;;12.00;;
3922;SDS011;1976;51.694;6.256;2023-07-22T06:33:19;17.33;;;10.10;;
3922;SDS011;1976;51.694;6.256;2023-07-22T06:35:45;29.07;;;11.50;;
3922;SDS011;1976;51.694;6.256;2023-07-22T06:38:11;22.57;;;9.30;;
3922;SDS011;1976;51.694;6.256;2023-07-22T06:40:36;25.63;;;11.87;;
3922;SDS011;1976;51.694;6.256;2023-07-22T06:43:02;14.70;;;9.10;;
3922;SDS011;1976;51.694;6.256;2023-07-22T06:45:28;23.93;;;10.87;;
3922;SDS011;1976;51.694;6.256;2023-07-22T06:47:53;22.53;;;12.20;;
3922;SDS011;1976;51.694;6.256;2023-07-22T06:50:19;25.93;;;12.93;;
3922;SDS011;1976;51.694;6.256;2023-07-22T06:52:44;14.73;;;7.87;;
3922;SDS011;1976;51.694;6.256;2023-07-22T06:55:10;21.93;;;11.70;;
3922;SDS011;1976;51.694;6.256;2023-07-22T06:57:36;10.97;;;4.93;;
3922;SDS011;1976;51.694;6.256;2023-07-22T07:00:03;22.60;;;9.60;;
3922;SDS011;1976;51.694;6.256;2023-07-22T07:02:30;22.97;;;11.00;;
3922;SDS011;1976;51.694;6.256;2023-07-22T07:04:55;21.50;;;12.07;;
3922;SDS011;1976;51.694;6.256;2023-07-22T07:07:21;26.60;;;13.63;;
3922;SDS011;1976;51.694;6.256;2023-07-22T07:09:47;24.53;;;13.60;;
3922;SDS011;1976;51.694;6.256;2023-07-22T07:12:12;24.40;;;11.13;;
3922;SDS011;1976;51.694;6.256;2023-07-22T07:14:38;21.87;;;9.97;;
3922;SDS011;1976;51.694;6.256;2023-07-22T07:17:03;20.27;;;9.70;;
3922;SDS011;1976;51.694;6.256;2023-07-22T07:19:29;23.23;;;9.93;;
3922;SDS011;1976;51.694;6.256;2023-07-22T07:21:55;28.37;;;12.10;;
3922;SDS011;1976;51.694;6.256;2023-07-22T07:24:20;25.17;;;10.23;;
3922;SDS011;1976;51.694;6.256;2023-07-22T07:26:46;21.13;;;10.47;;
3922;SDS011;1976;51.694;6.256;2023-07-22T07:29:12;18.40;;;10.67;;
3922;SDS011;1976;51.694;6.256;2023-07-22T07:31:38;25.77;;;11.13;;
3922;SDS011;1976;51.694;6.256;2023-07-22T07:34:04;18.77;;;10.43;;
3922;SDS011;1976;51.694;6.256;2023-07-22T07:36:31;21.07;;;10.73;;
3922;SDS011;1976;51.694;6.256;2023-07-22T07:38:58;24.87;;;7.70;;
3922;SDS011;1976;51.694;6.256;2023-07-22T07:41:24;17.87;;;9.80;;
3922;SDS011;1976;51.694;6.256;2023-07-22T07:43:49;23.37;;;9.83;;
3922;SDS011;1976;51.694;6.256;2023-07-22T07:48:48;18.30;;;9.53;;
3922;SDS011;1976;51.694;6.256;2023-07-22T07:51:18;19.53;;;9.33;;
3922;SDS011;1976;51.694;6.256;2023-07-22T07:53:46;14.70;;;9.70;;
3922;SDS011;1976;51.694;6.256;2023-07-22T07:56:15;27.13;;;12.73;;
3922;SDS011;1976;51.694;6.256;2023-07-22T07:58:41;19.30;;;8.17;;
3922;SDS011;1976;51.694;6.256;2023-07-22T08:01:07;21.23;;;9.97;;
3922;SDS011;1976;51.694;6.256;2023-07-22T08:03:34;17.10;;;8.97;;
3922;SDS011;1976;51.694;6.256;2023-07-22T08:06:02;24.47;;;9.30;;
3922;SDS011;1976;51.694;6.256;2023-07-22T08:08:28;23.77;;;9.77;;
3922;SDS011;1976;51.694;6.256;2023-07-22T08:11:01;22.53;;;10.00;;
3922;SDS011;1976;51.694;6.256;2023-07-22T08:13:27;15.90;;;8.70;;
3922;SDS011;1976;51.694;6.256;2023-07-22T08:15:55;16.40;;;8.40;;
3922;SDS011;1976;51.694;6.256;2023-07-22T08:18:22;12.30;;;9.00;;
3922;SDS011;1976;51.694;6.256;2023-07-22T08:20:48;15.53;;;8.40;;
3922;SDS011;1976;51.694;6.256;2023-07-22T08:23:15;22.87;;;9.00;;
3922;SDS011;1976;51.694;6.256;2023-07-22T08:25:41;18.80;;;9.30;;
3922;SDS011;1976;51.694;6.256;2023-07-22T08:28:06;10.77;;;6.97;;
3922;SDS011;1976;51.694;6.256;2023-07-22T08:30:32;13.77;;;6.33;;
3922;SDS011;1976;51.694;6.256;2023-07-22T08:32:58;6.47;;;4.80;;
3922;SDS011;1976;51.694;6.256;2023-07-22T08:35:23;15.20;;;9.23;;
3922;SDS011;1976;51.694;6.256;2023-07-22T08:37:49;19.17;;;7.13;;
3922;SDS011;1976;51.694;6.256;2023-07-22T08:40:15;8.10;;;4.00;;
3922;SDS011;1976;51.694;6.256;2023-07-22T08:42:41;14.90;;;7.07;;
3922;SDS011;1976;51.694;6.256;2023-07-22T08:45:08;16.80;;;5.17;;
3922;SDS011;1976;51.694;6.256;2023-07-22T08:47:35;18.83;;;7.70;;
3922;SDS011;1976;51.694;6.256;2023-07-22T08:50:14;17.77;;;9.13;;
3922;SDS011;1976;51.694;6.256;2023-07-22T08:52:44;14.10;;;7.50;;
3922;SDS011;1976;51.694;6.256;2023-07-22T08:55:11;9.63;;;5.30;;
3922;SDS011;1976;51.694;6.256;2023-07-22T08:57:37;18.50;;;8.43;;
3922;SDS011;1976;51.694;6.256;2023-07-22T09:00:04;11.20;;;5.53;;
3922;SDS011;1976;51.694;6.256;2023-07-22T09:02:34;16.50;;;7.53;;
3922;SDS011;1976;51.694;6.256;2023-07-22T09:05:02;10.83;;;6.23;;
3922;SDS011;1976;51.694;6.256;2023-07-22T09:07:28;9.63;;;6.37;;
3922;SDS011;1976;51.694;6.256;2023-07-22T09:09:54;18.67;;;5.43;;
3922;SDS011;1976;51.694;6.256;2023-07-22T09:12:22;13.00;;;7.90;;
3922;SDS011;1976;51.694;6.256;2023-07-22T09:14:48;20.17;;;8.33;;
3922;SDS011;1976;51.694;6.256;2023-07-22T09:17:15;14.00;;;7.57;;
3922;SDS011;1976;51.694;6.256;2023-07-22T09:19:41;8.10;;;5.80;;
3922;SDS011;1976;51.694;6.256;2023-07-22T09:22:09;13.80;;;8.60;;
3922;SDS011;1976;51.694;6.256;2023-07-22T09:24:35;9.70;;;6.50;;
3922;SDS011;1976;51.694;6.256;2023-07-22T09:27:01;11.50;;;6.60;;
3922;SDS011;1976;51.694;6.256;2023-07-22T09:29:59;10.90;;;6.57;;
3922;SDS011;1976;51.694;6.256;2023-07-22T09:32:21;12.03;;;7.27;;
3922;SDS011;1976;51.694;6.256;2023-07-22T09:35:01;22.73;;;7.17;;
3922;SDS011;1976;51.694;6.256;2023-07-22T09:37:36;11.70;;;6.43;;
3922;SDS011;1976;51.694;6.256;2023-07-22T09:40:13;10.60;;;5.07;;
3922;SDS011;1976;51.694;6.256;2023-07-22T09:42:38;12.93;;;5.40;;
3922;SDS011;1976;51.694;6.256;2023-07-22T09:45:04;5.47;;;4.10;;
3922;SDS011;1976;51.694;6.256;2023-07-22T09:47:39;11.53;;;5.93;;
3922;SDS011;1976;51.694;6.256;2023-07-22T09:50:13;12.50;;;6.17;;
3922;SDS011;1976;51.694;6.256;2023-07-22T09:55:13;11.60;;;6.50;;
3922;SDS011;1976;51.694;6.256;2023-07-22T09:57:44;14.73;;;5.80;;
3922;SDS011;1976;51.694;6.256;2023-07-22T10:00:12;8.13;;;4.03;;
3922;SDS011;1976;51.694;6.256;2023-07-22T10:02:44;5.23;;;3.27;;
3922;SDS011;1976;51.694;6.256;2023-07-22T10:05:13;9.13;;;4.33;;
3922;SDS011;1976;51.694;6.256;2023-07-22T10:07:43;27.43;;;6.20;;
3922;SDS011;1976;51.694;6.256;2023-07-22T10:10:11;9.53;;;4.87;;
3922;SDS011;1976;51.694;6.256;2023-07-22T10:12:41;9.73;;;5.57;;
3922;SDS011;1976;51.694;6.256;2023-07-22T10:15:08;12.20;;;6.40;;
3922;SDS011;1976;51.694;6.256;2023-07-22T10:17:43;8.90;;;5.43;;
3922;SDS011;1976;51.694;6.256;2023-07-22T10:20:10;7.87;;;5.90;;
3922;SDS011;1976;51.694;6.256;2023-07-22T10:22:40;10.13;;;6.30;;
3922;SDS011;1976;51.694;6.256;2023-07-22T10:25:10;10.10;;;5.20;;
3922;SDS011;1976;51.694;6.256;2023-07-22T10:27:37;10.03;;;5.17;;
3922;SDS011;1976;51.694;6.256;2023-07-22T10:30:05;13.13;;;3.83;;
3922;SDS011;1976;51.694;6.256;2023-07-22T10:32:44;9.23;;;5.20;;
3922;SDS011;1976;51.694;6.256;2023-07-22T10:35:12;10.53;;;5.43;;
3922;SDS011;1976;51.694;6.256;2023-07-22T10:37:46;10.03;;;4.00;;
3922;SDS011;1976;51.694;6.256;2023-07-22T10:40:16;5.23;;;4.10;;
3922;SDS011;1976;51.694;6.256;2023-07-22T10:42:52;13.03;;;2.90;;
3922;SDS011;1976;51.694;6.256;2023-07-22T10:45:25;5.77;;;3.47;;
3922;SDS011;1976;51.694;6.256;2023-07-22T10:53:27;12.47;;;4.20;;
3922;SDS011;1976;51.694;6.256;2023-07-22T11:06:39;5.87;;;3.30;;
3922;SDS011;1976;51.694;6.256;2023-07-22T11:09:05;3.83;;;2.40;;
3922;SDS011;1976;51.694;6.256;2023-07-22T11:11:39;3.83;;;2.57;;
3922;SDS011;1976;51.694;6.256;2023-07-22T11:14:15;3.60;;;2.80;;
3922;SDS011;1976;51.694;6.256;2023-07-22T11:16:42;8.10;;;3.70;;
3922;SDS011;1976;51.694;6.256;2023-07-22T11:19:09;4.30;;;2.73;;
3922;SDS011;1976;51.694;6.256;2023-07-22T11:21:35;7.00;;;3.53;;
3922;SDS011;1976;51.694;6.256;2023-07-22T11:24:03;4.10;;;2.57;;
3922;SDS011;1976;51.694;6.256;2023-07-22T11:26:30;4.30;;;3.00;;
3922;SDS011;1976;51.694;6.256;2023-07-22T11:28:56;4.17;;;2.30;;
3922;SDS011;1976;51.694;6.256;2023-07-22T11:31:22;2.60;;;2.40;;
3922;SDS011;1976;51.694;6.256;2023-07-22T11:33:55;4.90;;;2.80;;
3922;SDS011;1976;51.694;6.256;2023-07-22T11:36:21;10.50;;;3.87;;
3922;SDS011;1976;51.694;6.256;2023-07-22T11:38:47;3.90;;;2.43;;
3922;SDS011;1976;51.694;6.256;2023-07-22T11:41:12;7.23;;;4.00;;
3922;SDS011;1976;51.694;6.256;2023-07-22T11:43:39;5.83;;;2.90;;
3922;SDS011;1976;51.694;6.256;2023-07-22T11:46:05;4.73;;;2.63;;
3922;SDS011;1976;51.694;6.256;2023-07-22T11:48:31;7.63;;;3.60;;
3922;SDS011;1976;51.694;6.256;2023-07-22T11:51:00;12.40;;;3.83;;
3922;SDS011;1976;51.694;6.256;2023-07-22T11:53:26;4.20;;;3.50;;
3922;SDS011;1976;51.694;6.256;2023-07-22T11:55:54;11.20;;;3.87;;
3922;SDS011;1976;51.694;6.256;2023-07-22T11:58:27;7.30;;;3.60;;
3922;SDS011;1976;51.694;6.256;2023-07-22T12:01:07;15.83;;;3.80;;
3922;SDS011;1976;51.694;6.256;2023-07-22T12:03:36;11.20;;;4.10;;
3922;SDS011;1976;51.694;6.256;2023-07-22T12:06:08;14.77;;;3.60;;
3922;SDS011;1976;51.694;6.256;2023-07-22T12:08:35;9.30;;;3.10;;
3922;SDS011;1976;51.694;6.256;2023-07-22T12:11:01;4.67;;;2.90;;
3922;SDS011;1976;51.694;6.256;2023-07-22T12:13:28;5.73;;;2.33;;
3922;SDS011;1976;51.694;6.256;2023-07-22T12:16:01;1.73;;;1.60;;
3922;SDS011;1976;51.694;6.256;2023-07-22T12:18:27;3.97;;;1.93;;
3922;SDS011;1976;51.694;6.256;2023-07-22T12:20:53;6.07;;;1.30;;
3922;SDS011;1976;51.694;6.256;2023-07-22T12:23:19;1.23;;;1.10;;
3922;SDS011;1976;51.694;6.256;2023-07-22T12:25:46;3.00;;;1.73;;
3922;SDS011;1976;51.694;6.256;2023-07-22T12:28:12;3.83;;;1.50;;
3922;SDS011;1976;51.694;6.256;2023-07-22T12:30:37;5.30;;;2.40;;
3922;SDS011;1976;51.694;6.256;2023-07-22T12:33:03;2.60;;;1.70;;
3922;SDS011;1976;51.694;6.256;2023-07-22T12:35:29;3.63;;;1.63;;
3922;SDS011;1976;51.694;6.256;2023-07-22T12:37:54;4.90;;;1.30;;
3922;SDS011;1976;51.694;6.256;2023-07-22T12:40:20;4.73;;;1.80;;
3922;SDS011;1976;51.694;6.256;2023-07-22T12:42:46;2.13;;;1.60;;
3922;SDS011;1976;51.694;6.256;2023-07-22T12:45:12;2.80;;;1.80;;
3922;SDS011;1976;51.694;6.256;2023-07-22T12:47:38;2.83;;;1.80;;
3922;SDS011;1976;51.694;6.256;2023-07-22T12:50:04;4.23;;;2.10;;
3922;SDS011;1976;51.694;6.256;2023-07-22T12:52:32;8.00;;;1.80;;
3922;SDS011;1976;51.694;6.256;2023-07-22T12:54:58;8.50;;;1.60;;
3922;SDS011;1976;51.694;6.256;2023-07-22T12:57:23;4.47;;;1.97;;
3922;SDS011;1976;51.694;6.256;2023-07-22T12:59:49;3.07;;;1.73;;
3922;SDS011;1976;51.694;6.256;2023-07-22T13:02:16;2.40;;;1.40;;
3922;SDS011;1976;51.694;6.256;2023-07-22T13:04:41;2.40;;;1.20;;
3922;SDS011;1976;51.694;6.256;2023-07-22T13:07:09;3.13;;;1.53;;
3922;SDS011;1976;51.694;6.256;2023-07-22T13:09:34;2.50;;;1.50;;
3922;SDS011;1976;51.694;6.256;2023-07-22T13:12:00;4.10;;;1.60;;
3922;SDS011;1976;51.694;6.256;2023-07-22T13:14:25;3.27;;;1.80;;
3922;SDS011;1976;51.694;6.256;2023-07-22T13:16:51;1.87;;;1.40;;
3922;SDS011;1976;51.694;6.256;2023-07-22T13:19:16;1.67;;;1.40;;
3922;SDS011;1976;51.694;6.256;2023-07-22T13:21:42;2.07;;;1.60;;
3922;SDS011;1976;51.694;6.256;2023-07-22T13:24:08;1.63;;;1.40;;
3922;SDS011;1976;51.694;6.256;2023-07-22T13:26:34;4.00;;;1.27;;
3922;SDS011;1976;51.694;6.256;2023-07-22T13:29:00;1.83;;;1.60;;
3922;SDS011;1976;51.694;6.256;2023-07-22T13:31:26;1.40;;;1.20;;
3922;SDS011;1976;51.694;6.256;2023-07-22T13:33:52;16.57;;;1.90;;
3922;SDS011;1976;51.694;6.256;2023-07-22T13:36:17;1.53;;;1.30;;
3922;SDS011;1976;51.694;6.256;2023-07-22T13:38:43;4.13;;;1.70;;
3922;SDS011;1976;51.694;6.256;2023-07-22T13:41:08;1.63;;;1.40;;
3922;SDS011;1976;51.694;6.256;2023-07-22T13:43:34;3.00;;;1.40;;
3922;SDS011;1976;51.694;6.256;2023-07-22T13:45:59;2.60;;;1.67;;
3922;SDS011;1976;51.694;6.256;2023-07-22T13:48:25;4.90;;;1.70;;
3922;SDS011;1976;51.694;6.256;2023-07-22T13:50:50;1.70;;;1.60;;
3922;SDS011;1976;51.694;6.256;2023-07-22T13:53:16;3.30;;;1.90;;
3922;SDS011;1976;51.694;6.256;2023-07-22T13:55:42;8.80;;;2.00;;
3922;SDS011;1976;51.694;6.256;2023-07-22T13:58:07;3.23;;;1.80;;
3922;SDS011;1976;51.694;6.256;2023-07-22T14:00:33;2.43;;;1.87;;
3922;SDS011;1976;51.694;6.256;2023-07-22T14:02:59;2.40;;;1.50;;
3922;SDS011;1976;51.694;6.256;2023-07-22T14:05:25;10.90;;;2.47;;
3922;SDS011;1976;51.694;6.256;2023-07-22T14:07:50;5.90;;;2.10;;
3922;SDS011;1976;51.694;6.256;2023-07-22T14:10:16;8.23;;;1.83;;
3922;SDS011;1976;51.694;6.256;2023-07-22T14:12:41;2.97;;;1.80;;
3922;SDS011;1976;51.694;6.256;2023-07-22T14:15:07;6.70;;;1.93;;
3922;SDS011;1976;51.694;6.256;2023-07-22T14:17:33;2.80;;;1.70;;
3922;SDS011;1976;51.694;6.256;2023-07-22T14:19:59;3.60;;;1.97;;
3922;SDS011;1976;51.694;6.256;2023-07-22T14:22:25;3.67;;;1.43;;
3922;SDS011;1976;51.694;6.256;2023-07-22T14:24:50;3.47;;;2.10;;
3922;SDS011;1976;51.694;6.256;2023-07-22T14:27:16;4.97;;;1.87;;
3922;SDS011;1976;51.694;6.256;2023-07-22T14:29:41;3.50;;;1.77;;
3922;SDS011;1976;51.694;6.256;2023-07-22T14:32:07;3.20;;;2.00;;
3922;SDS011;1976;51.694;6.256;2023-07-22T14:34:33;4.33;;;1.90;;
3922;SDS011;1976;51.694;6.256;2023-07-22T14:36:59;3.00;;;1.47;;
3922;SDS011;1976;51.694;6.256;2023-07-22T14:39:25;2.43;;;1.93;;
3922;SDS011;1976;51.694;6.256;2023-07-22T14:41:51;3.93;;;1.40;;
3922;SDS011;1976;51.694;6.256;2023-07-22T14:44:18;2.60;;;2.27;;
3922;SDS011;1976;51.694;6.256;2023-07-22T14:46:45;3.57;;;1.53;;
3922;SDS011;1976;51.694;6.256;2023-07-22T14:49:11;3.77;;;1.90;;
3922;SDS011;1976;51.694;6.256;2023-07-22T14:51:36;3.70;;;1.73;;
3922;SDS011;1976;51.694;6.256;2023-07-22T14:54:02;1.47;;;1.20;;
3922;SDS011;1976;51.694;6.256;2023-07-22T14:56:28;3.57;;;1.33;;
3922;SDS011;1976;51.694;6.256;2023-07-22T14:58:54;1.20;;;1.10;;
3922;SDS011;1976;51.694;6.256;2023-07-22T15:01:21;1.93;;;1.63;;
3922;SDS011;1976;51.694;6.256;2023-07-22T15:03:47;4.73;;;1.87;;
3922;SDS011;1976;51.694;6.256;2023-07-22T15:06:13;3.80;;;2.03;;
3922;SDS011;1976;51.694;6.256;2023-07-22T15:08:38;3.07;;;1.23;;
3922;SDS011;1976;51.694;6.256;2023-07-22T15:11:04;2.83;;;1.90;;
3922;SDS011;1976;51.694;6.256;2023-07-22T15:13:29;2.20;;;1.50;;
3922;SDS011;1976;51.694;6.256;2023-07-22T15:15:55;1.93;;;1.40;;
3922;SDS011;1976;51.694;6.256;2023-07-22T15:18:21;2.23;;;1.70;;